Time;durP1;ratioP1;P1;durP2;ratioP2;P2;SDS_P1;SDS_P2;PMS_P1;PMS_P2;Temp;Humidity;BMP_temperature;BMP_pressure;BME280_temperature;BME280_humidity;BME280_pressure;Samples;Min_cycle;Max_cycle;Signal;HPM_P1;HPM_P2
2023/07/16 00:00:25;;;;;;;0.00;0.00;;;23.00;99.90;;;;;;7392460;19;20156;-73
2023/07/16 00:02:56;;;;;;;0.00;0.00;;;23.00;99.90;;;;;;7392500;19;20180;-74
2023/07/16 00:05:25;;;;;;;0.00;0.00;;;23.00;99.90;;;;;;7391542;19;20184;-72
2023/07/16 00:07:57;;;;;;;0.00;0.00;;;22.90;99.90;;;;;;7390438;19;20742;-72
2023/07/16 00:10:25;;;;;;;0.00;0.00;;;22.90;99.90;;;;;;7393049;19;20149;-72
2023/07/16 00:12:54;;;;;;;0.00;0.00;;;22.90;99.90;;;;;;7393688;19;20145;-71
2023/07/16 00:15:23;;;;;;;0.00;0.00;;;22.90;99.90;;;;;;7390988;19;20255;-73
2023/07/16 00:17:52;;;;;;;0.00;0.00;;;22.90;99.90;;;;;;7392129;19;20159;-71
2023/07/16 00:20:23;;;;;;;0.00;0.00;;;22.90;99.90;;;;;;7392601;19;20165;-72
2023/07/16 00:22:52;;;;;;;0.00;0.00;;;22.80;99.90;;;;;;7392333;19;20160;-70
2023/07/16 00:25:23;;;;;;;0.00;0.00;;;22.70;99.90;;;;;;7391313;19;20517;-72
2023/07/16 00:27:51;;;;;;;0.00;0.00;;;22.60;99.90;;;;;;7391976;19;20124;-73
2023/07/16 00:30:20;;;;;;;0.00;0.00;;;22.50;99.90;;;;;;7391766;19;20170;-72
2023/07/16 00:32:50;;;;;;;0.00;0.00;;;22.50;99.90;;;;;;7392750;19;20200;-71
2023/07/16 00:35:19;;;;;;;0.00;0.00;;;22.50;99.90;;;;;;7390037;19;20177;-71
2023/07/16 00:37:48;;;;;;;0.00;0.00;;;22.40;99.90;;;;;;7385291;19;20136;-72
2023/07/16 00:40:17;;;;;;;0.00;0.00;;;22.40;99.90;;;;;;7395525;19;20133;-73
2023/07/16 00:42:48;;;;;;;0.00;0.00;;;22.40;99.90;;;;;;7394918;19;20148;-72
2023/07/16 00:45:17;;;;;;;0.00;0.00;;;22.30;99.90;;;;;;7391628;19;20537;-72
2023/07/16 00:47:47;;;;;;;0.00;0.00;;;22.30;99.90;;;;;;7393236;19;20224;-71
2023/07/16 00:50:16;;;;;;;0.00;0.00;;;22.20;99.90;;;;;;7393854;19;20165;-72
2023/07/16 00:52:46;;;;;;;0.00;0.00;;;22.10;99.90;;;;;;7393202;19;20140;-72
2023/07/16 00:55:15;;;;;;;0.00;0.00;;;22.10;99.90;;;;;;7392659;19;20159;-72
2023/07/16 00:57:44;;;;;;;0.00;0.00;;;22.00;99.90;;;;;;7390987;19;20158;-71
2023/07/16 01:00:16;;;;;;;0.00;0.00;;;21.90;99.90;;;;;;7393780;19;20182;-73
2023/07/16 01:02:45;;;;;;;0.00;0.00;;;21.90;99.90;;;;;;7393333;19;20136;-74
2023/07/16 01:05:14;;;;;;;0.00;0.00;;;21.80;99.90;;;;;;7390843;19;20182;-75
2023/07/16 01:07:52;;;;;;;0.00;0.00;;;21.80;99.90;;;;;;7391525;19;20144;-74
2023/07/16 01:10:21;;;;;;;0.00;0.00;;;21.70;99.90;;;;;;7391024;19;20628;-73
2023/07/16 01:12:51;;;;;;;0.00;0.00;;;21.60;99.90;;;;;;7389583;19;20152;-73
2023/07/16 01:15:22;;;;;;;0.00;0.00;;;21.70;99.90;;;;;;7392732;19;20156;-72
2023/07/16 01:17:51;;;;;;;0.00;0.00;;;21.60;99.90;;;;;;7388375;19;20153;-73
2023/07/16 01:20:20;;;;;;;0.00;0.00;;;21.60;99.90;;;;;;7389596;19;20152;-73
2023/07/16 01:23:03;;;;;;;0.00;0.00;;;21.60;99.90;;;;;;7391597;19;20204;-73
2023/07/16 01:25:57;;;;;;;0.00;0.00;;;21.60;99.90;;;;;;7391013;19;20149;-73
2023/07/16 01:28:53;;;;;;;0.00;0.00;;;21.50;99.90;;;;;;7388895;19;20177;-72
2023/07/16 01:31:25;;;;;;;0.00;0.00;;;21.50;99.90;;;;;;7389903;19;20148;-71
2023/07/16 01:33:56;;;;;;;0.00;0.00;;;21.50;99.90;;;;;;7390135;19;20176;-72
2023/07/16 01:36:28;;;;;;;0.00;0.00;;;21.50;99.90;;;;;;7388497;19;20145;-73
2023/07/16 01:38:56;;;;;;;0.00;0.00;;;21.50;99.90;;;;;;7390977;19;20663;-72
2023/07/16 01:41:25;;;;;;;0.00;0.00;;;21.50;99.90;;;;;;7388126;19;20632;-71
2023/07/16 01:43:54;;;;;;;0.00;0.00;;;21.60;99.90;;;;;;7390156;19;20149;-72
2023/07/16 01:46:26;;;;;;;0.00;0.00;;;21.60;99.90;;;;;;7390418;19;20145;-72
2023/07/16 01:48:59;;;;;;;0.00;0.00;;;21.50;99.90;;;;;;7388253;19;20128;-68
2023/07/16 01:51:28;;;;;;;0.00;0.00;;;21.50;99.90;;;;;;7388065;19;20152;-72
2023/07/16 01:54:02;;;;;;;0.00;0.00;;;21.50;99.90;;;;;;7386645;19;20175;-71
2023/07/16 01:56:33;;;;;;;0.00;0.00;;;21.50;99.90;;;;;;7387643;19;20149;-72
2023/07/16 01:59:02;;;;;;;0.00;0.00;;;21.50;99.90;;;;;;7389761;19;20137;-72
2023/07/16 02:01:35;;;;;;;0.00;0.00;;;21.50;99.90;;;;;;7387702;19;20169;-72
2023/07/16 02:04:05;;;;;;;0.00;0.00;;;21.50;99.90;;;;;;7387139;19;20201;-72
2023/07/16 02:06:36;;;;;;;0.00;0.00;;;21.50;99.90;;;;;;7387192;19;20236;-70
2023/07/16 02:09:05;;;;;;;0.00;0.00;;;21.50;99.90;;;;;;7384849;19;20616;-73
2023/07/16 02:11:34;;;;;;;0.00;0.00;;;21.50;99.90;;;;;;7388854;19;20137;-73
2023/07/16 02:14:03;;;;;;;0.00;0.00;;;21.50;99.90;;;;;;7386966;19;20172;-73
2023/07/16 02:16:35;;;;;;;0.00;0.00;;;21.40;99.90;;;;;;7389225;19;20141;-73
2023/07/16 02:22:14;;;;;;;0.00;0.00;;;21.40;99.90;;;;;;7378967;19;20157;-72
2023/07/16 02:24:43;;;;;;;0.00;0.00;;;21.40;99.90;;;;;;7389657;19;20157;-73
2023/07/16 02:27:12;;;;;;;0.00;0.00;;;21.30;99.90;;;;;;7389275;19;20163;-74
2023/07/16 02:29:42;;;;;;;0.00;0.00;;;21.30;99.90;;;;;;7389052;19;20170;-72
2023/07/16 02:32:14;;;;;;;0.00;0.00;;;21.30;99.90;;;;;;7390950;19;20177;-73
2023/07/16 02:34:43;;;;;;;0.00;0.00;;;21.30;99.90;;;;;;7388263;19;20180;-74
2023/07/16 02:37:12;;;;;;;0.00;0.00;;;21.30;99.90;;;;;;7387499;19;20157;-73
2023/07/16 02:39:41;;;;;;;0.00;0.00;;;21.30;99.90;;;;;;7390291;19;20132;-73
2023/07/16 02:42:11;;;;;;;0.00;0.00;;;21.30;99.90;;;;;;7389420;19;20152;-73
2023/07/16 02:44:44;;;;;;;0.00;0.00;;;21.20;99.90;;;;;;7388980;19;20191;-72
2023/07/16 02:47:15;;;;;;;0.00;0.00;;;21.20;99.90;;;;;;7389414;19;20149;-72
2023/07/16 02:49:44;;;;;;;0.00;0.00;;;21.20;99.90;;;;;;7388590;19;20152;-73
2023/07/16 02:52:13;;;;;;;0.00;0.00;;;21.20;99.90;;;;;;7388719;19;20153;-73
2023/07/16 02:54:42;;;;;;;0.00;0.00;;;21.20;99.90;;;;;;7384703;19;20177;-74
2023/07/16 02:57:11;;;;;;;0.00;0.00;;;21.10;99.90;;;;;;7387010;19;20172;-73
2023/07/16 02:59:40;;;;;;;0.00;0.00;;;21.10;99.90;;;;;;7388196;19;20228;-74
2023/07/16 03:02:15;;;;;;;0.00;0.00;;;21.10;99.90;;;;;;7388346;19;20660;-72
2023/07/16 03:04:44;;;;;;;0.00;0.00;;;21.10;99.90;;;;;;7387023;19;20648;-72
2023/07/16 03:07:15;;;;;;;0.00;0.00;;;21.10;99.90;;;;;;7391771;19;20137;-70
2023/07/16 03:09:43;;;;;;;0.00;0.00;;;21.10;99.90;;;;;;7387550;19;20164;-71
2023/07/16 03:12:12;;;;;;;0.00;0.00;;;21.10;99.90;;;;;;7390172;19;20165;-70
2023/07/16 03:14:41;;;;;;;0.00;0.00;;;21.10;99.90;;;;;;7390079;19;20157;-69
2023/07/16 03:17:10;;;;;;;0.00;0.00;;;21.10;99.90;;;;;;7387296;19;20251;-70
2023/07/16 03:19:41;;;;;;;0.00;0.00;;;21.10;99.90;;;;;;7387353;19;20159;-70
2023/07/16 03:22:10;;;;;;;0.00;0.00;;;21.10;99.90;;;;;;7392367;19;20133;-70
2023/07/16 03:24:39;;;;;;;0.00;0.00;;;21.10;99.90;;;;;;7390743;19;20156;-70
2023/07/16 03:27:08;;;;;;;0.00;0.00;;;21.10;99.90;;;;;;7388628;19;20144;-70
2023/07/16 03:29:37;;;;;;;0.00;0.00;;;21.10;99.90;;;;;;7387697;19;20187;-70
2023/07/16 03:32:07;;;;;;;0.00;0.00;;;21.00;99.90;;;;;;7387942;19;20223;-71
2023/07/16 03:34:36;;;;;;;0.00;0.00;;;21.00;99.90;;;;;;7388836;19;20149;-70
2023/07/16 03:37:07;;;;;;;0.00;0.00;;;21.00;99.90;;;;;;7387207;19;20141;-69
2023/07/16 03:39:35;;;;;;;0.00;0.00;;;21.00;99.90;;;;;;7389504;19;20141;-71
2023/07/16 03:42:04;;;;;;;0.00;0.00;;;21.00;99.90;;;;;;7388308;19;20159;-71
2023/07/16 03:44:33;;;;;;;0.00;0.00;;;21.00;99.90;;;;;;7388861;19;20149;-69
2023/07/16 03:47:03;;;;;;;0.00;0.00;;;20.90;99.90;;;;;;7386791;19;20155;-70
2023/07/16 03:49:32;;;;;;;0.00;0.00;;;20.90;99.90;;;;;;7386617;19;20156;-70
2023/07/16 03:52:00;;;;;;;0.00;0.00;;;20.90;99.90;;;;;;7388911;19;20158;-71
2023/07/16 03:54:31;;;;;;;0.00;0.00;;;20.90;99.90;;;;;;7388663;19;20160;-71
2023/07/16 03:57:00;;;;;;;0.00;0.00;;;21.10;99.90;;;;;;7386873;19;20145;-69
2023/07/16 03:59:29;;;;;;;0.00;0.00;;;20.80;99.90;;;;;;7386664;19;20157;-70
2023/07/16 04:01:57;;;;;;;0.00;0.00;;;20.90;99.90;;;;;;7386833;19;20156;-72
2023/07/16 04:04:26;;;;;;;0.00;0.00;;;21.00;99.90;;;;;;7389608;19;20145;-70
2023/07/16 04:06:56;;;;;;;0.00;0.00;;;20.90;99.90;;;;;;7391136;19;20153;-71
2023/07/16 04:09:25;;;;;;;0.00;0.00;;;21.00;99.90;;;;;;7388818;19;20149;-70
2023/07/16 04:11:56;;;;;;;0.00;0.00;;;21.00;99.90;;;;;;7390745;19;20144;-70
2023/07/16 04:14:24;;;;;;;0.00;0.00;;;21.00;99.90;;;;;;7388394;19;20153;-70
2023/07/16 04:16:53;;;;;;;0.00;0.00;;;21.00;99.90;;;;;;7388467;19;20612;-71
2023/07/16 04:19:21;;;;;;;0.00;0.00;;;21.00;99.90;;;;;;7386965;19;20141;-71
2023/07/16 04:21:50;;;;;;;0.00;0.00;;;21.00;99.90;;;;;;7388489;19;20128;-69
2023/07/16 04:24:19;;;;;;;0.00;0.00;;;21.00;99.90;;;;;;7389383;19;20169;-70
2023/07/16 04:26:47;;;;;;;0.00;0.00;;;21.10;99.90;;;;;;7390625;19;20157;-71
2023/07/16 04:29:18;;;;;;;0.00;0.00;;;21.20;99.90;;;;;;7389941;19;20265;-73
2023/07/16 04:31:47;;;;;;;0.00;0.00;;;21.20;99.90;;;;;;7389122;19;20148;-69
2023/07/16 04:34:15;;;;;;;0.00;0.00;;;21.20;99.90;;;;;;7389892;19;20132;-70
2023/07/16 04:36:45;;;;;;;0.00;0.00;;;21.20;99.90;;;;;;7389858;19;20148;-71
2023/07/16 04:39:14;;;;;;;0.00;0.00;;;21.30;99.90;;;;;;7386143;19;20141;-70
2023/07/16 04:41:42;;;;;;;0.00;0.00;;;21.20;99.90;;;;;;7389072;19;20137;-71
2023/07/16 04:44:11;;;;;;;0.00;0.00;;;21.30;99.90;;;;;;7387873;19;20132;-71
2023/07/16 04:46:42;;;;;;;0.00;0.00;;;21.30;99.90;;;;;;7383638;19;20149;-70
2023/07/16 04:49:11;;;;;;;0.00;0.00;;;21.20;99.90;;;;;;7381563;19;20165;-69
2023/07/16 04:51:39;;;;;;;0.00;0.00;;;21.30;99.90;;;;;;7386854;19;20505;-70
2023/07/16 04:54:08;;;;;;;0.00;0.00;;;21.50;99.90;;;;;;7387150;19;20129;-68
2023/07/16 04:56:36;;;;;;;0.00;0.00;;;21.70;99.90;;;;;;7390681;19;20140;-70
2023/07/16 04:59:05;;;;;;;0.00;0.00;;;21.80;99.90;;;;;;7386419;19;20197;-70
2023/07/16 05:01:33;;;;;;;0.00;0.00;;;21.90;99.90;;;;;;7388654;19;20181;-71
2023/07/16 05:04:05;;;;;;;0.00;0.00;;;22.10;99.90;;;;;;7387846;19;20160;-71
2023/07/16 05:06:33;;;;;;;0.00;0.00;;;22.30;99.90;;;;;;7389289;19;20153;-72
2023/07/16 05:09:02;;;;;;;0.00;0.00;;;22.50;99.90;;;;;;7385465;19;20185;-70
2023/07/16 05:11:33;;;;;;;0.00;0.00;;;22.50;99.90;;;;;;7385864;19;20132;-71
2023/07/16 05:14:01;;;;;;;0.00;0.00;;;22.50;99.90;;;;;;7388442;19;20133;-71
2023/07/16 05:16:30;;;;;;;0.00;0.00;;;22.50;99.90;;;;;;7386821;19;20147;-70
2023/07/16 05:18:58;;;;;;;0.00;0.00;;;22.40;99.90;;;;;;7383709;19;20169;-69
2023/07/16 05:21:30;;;;;;;0.00;0.00;;;22.30;99.90;;;;;;7387178;19;20137;-70
2023/07/16 05:23:58;;;;;;;0.00;0.00;;;22.30;99.90;;;;;;7386099;19;20140;-72
2023/07/16 05:26:27;;;;;;;0.00;0.00;;;22.30;99.90;;;;;;7385170;19;20166;-69
2023/07/16 05:28:55;;;;;;;0.00;0.00;;;22.40;99.90;;;;;;7386314;19;20165;-70
2023/07/16 05:31:24;;;;;;;0.00;0.00;;;22.40;99.90;;;;;;7386775;19;20256;-69
2023/07/16 05:33:52;;;;;;;0.00;0.00;;;22.30;99.90;;;;;;7387257;19;20153;-69
2023/07/16 05:36:21;;;;;;;0.00;0.00;;;22.30;99.90;;;;;;7384877;19;20158;-71
2023/07/16 05:38:52;;;;;;;0.00;0.00;;;22.30;99.90;;;;;;7384658;19;20157;-71
2023/07/16 05:41:21;;;;;;;0.00;0.00;;;22.20;99.90;;;;;;7385589;19;20141;-69
2023/07/16 05:43:49;;;;;;;0.00;0.00;;;22.20;99.90;;;;;;7385645;19;20186;-70
2023/07/16 05:46:18;;;;;;;0.00;0.00;;;22.30;99.90;;;;;;7386125;19;20141;-68
2023/07/16 05:48:47;;;;;;;0.00;0.00;;;22.40;99.90;;;;;;7384055;19;20153;-70
2023/07/16 05:51:15;;;;;;;0.00;0.00;;;22.70;99.90;;;;;;7385423;19;20620;-69
2023/07/16 05:53:44;;;;;;;0.00;0.00;;;22.90;99.90;;;;;;7386692;19;20137;-70
2023/07/16 05:56:15;;;;;;;0.00;0.00;;;23.20;99.90;;;;;;7383423;19;20165;-70
2023/07/16 05:58:44;;;;;;;0.00;0.00;;;23.40;99.90;;;;;;7387505;19;20156;-70
2023/07/16 06:01:13;;;;;;;0.00;0.00;;;23.50;99.90;;;;;;7390014;19;20227;-69
2023/07/16 06:03:42;;;;;;;0.00;0.00;;;23.50;99.90;;;;;;7391532;19;20152;-70
2023/07/16 06:06:11;;;;;;;0.00;0.00;;;23.50;99.90;;;;;;7390596;19;20190;-71
2023/07/16 06:08:40;;;;;;;0.00;0.00;;;23.60;99.90;;;;;;7389687;19;20210;-70
2023/07/16 06:11:09;;;;;;;0.00;0.00;;;23.70;99.90;;;;;;7392029;19;20152;-70
2023/07/16 06:13:40;;;;;;;0.00;0.00;;;23.80;99.90;;;;;;7392902;19;20145;-70
2023/07/16 06:16:09;;;;;;;0.00;0.00;;;24.00;99.90;;;;;;7394364;19;20137;-71
2023/07/16 06:18:37;;;;;;;0.00;0.00;;;24.20;99.90;;;;;;7391757;19;20170;-69
2023/07/16 06:21:06;;;;;;;0.00;0.00;;;24.10;99.90;;;;;;7393070;19;20188;-70
2023/07/16 06:23:35;;;;;;;0.00;0.00;;;24.00;99.90;;;;;;7392981;19;20173;-69
2023/07/16 06:26:03;;;;;;;0.00;0.00;;;23.80;99.90;;;;;;7391871;19;20169;-68
2023/07/16 06:28:32;;;;;;;0.00;0.00;;;23.80;99.90;;;;;;7391745;19;20177;-70
2023/07/16 06:31:03;;;;;;;0.00;0.00;;;23.80;99.90;;;;;;7392612;19;20174;-70
2023/07/16 06:33:32;;;;;;;0.00;0.00;;;23.70;99.90;;;;;;7391085;19;20163;-69
2023/07/16 06:36:00;;;;;;;0.00;0.00;;;23.50;99.90;;;;;;7392319;19;20137;-69
2023/07/16 06:38:29;;;;;;;0.00;0.00;;;23.50;99.90;;;;;;7387001;19;20193;-70
2023/07/16 06:40:58;;;;;;;0.00;0.00;;;23.70;99.90;;;;;;7389272;19;20168;-69
2023/07/16 06:43:27;;;;;;;0.00;0.00;;;23.90;99.90;;;;;;7388689;19;20144;-70
2023/07/16 06:45:55;;;;;;;0.00;0.00;;;24.10;99.90;;;;;;7390290;19;20152;-72
2023/07/16 06:48:26;;;;;;;0.00;0.00;;;24.30;99.90;;;;;;7386043;19;20188;-69
2023/07/16 06:50:55;;;;;;;0.00;0.00;;;24.40;99.90;;;;;;7389260;19;20164;-70
2023/07/16 06:53:24;;;;;;;0.00;0.00;;;24.50;99.90;;;;;;7387248;19;20153;-71
2023/07/16 06:55:52;;;;;;;0.00;0.00;;;24.70;99.90;;;;;;7388576;19;20156;-69
2023/07/16 06:58:21;;;;;;;0.00;0.00;;;24.80;99.90;;;;;;7387279;19;20177;-68
2023/07/16 07:00:49;;;;;;;0.00;0.00;;;25.00;99.90;;;;;;7390590;19;20133;-69
2023/07/16 07:03:18;;;;;;;0.00;0.00;;;25.10;99.90;;;;;;7390603;19;20136;-69
2023/07/16 07:05:49;;;;;;;0.00;0.00;;;25.40;99.90;;;;;;7391183;19;20132;-69
2023/07/16 07:08:18;;;;;;;0.00;0.00;;;25.60;99.90;;;;;;7386782;19;20167;-69
2023/07/16 07:10:46;;;;;;;0.00;0.00;;;25.70;99.90;;;;;;7388494;19;20129;-68
2023/07/16 07:13:15;;;;;;;0.00;0.00;;;25.80;99.90;;;;;;7388932;19;20143;-68
2023/07/16 07:15:44;;;;;;;0.00;0.00;;;25.90;99.90;;;;;;7390591;19;20142;-69
2023/07/16 07:18:13;;;;;;;0.00;0.00;;;26.00;99.90;;;;;;7385224;19;20195;-70
2023/07/16 07:20:42;;;;;;;0.00;0.00;;;26.00;99.90;;;;;;7389784;19;20161;-68
2023/07/16 07:23:15;;;;;;;0.00;0.00;;;26.00;99.90;;;;;;7387425;19;20149;-70
2023/07/16 07:25:44;;;;;;;0.00;0.00;;;26.20;99.90;;;;;;7387908;19;20184;-70
2023/07/16 07:28:12;;;;;;;0.00;0.00;;;26.40;99.90;;;;;;7382273;19;20198;-70
2023/07/16 07:30:41;;;;;;;0.00;0.00;;;26.50;99.90;;;;;;7385960;19;20128;-70
2023/07/16 07:33:09;;;;;;;0.00;0.00;;;26.60;99.90;;;;;;7387874;19;20129;-67
2023/07/16 07:35:38;;;;;;;0.00;0.00;;;26.70;99.90;;;;;;7389333;19;20166;-72
2023/07/16 07:38:07;;;;;;;0.00;0.00;;;26.80;99.90;;;;;;7386930;19;20174;-70
2023/07/16 07:40:38;;;;;;;0.00;0.00;;;26.90;99.90;;;;;;7386941;19;20153;-70
2023/07/16 07:43:06;;;;;;;0.00;0.00;;;26.90;99.90;;;;;;7386660;19;20224;-72
2023/07/16 07:45:35;;;;;;;0.00;0.00;;;26.90;99.90;;;;;;7386990;19;20149;-69
2023/07/16 07:48:04;;;;;;;0.00;0.00;;;27.00;99.90;;;;;;7385678;19;20177;-70
2023/07/16 07:50:32;;;;;;;0.00;0.00;;;27.00;99.90;;;;;;7387098;19;20150;-70
2023/07/16 07:53:01;;;;;;;0.00;0.00;;;27.00;99.90;;;;;;7388816;19;20158;-69
2023/07/16 07:55:29;;;;;;;0.00;0.00;;;27.30;99.90;;;;;;7389415;19;20169;-70
2023/07/16 07:58:00;;;;;;;0.00;0.00;;;27.00;99.90;;;;;;7386107;19;20164;-69
2023/07/16 08:00:29;;;;;;;0.00;0.00;;;26.80;99.90;;;;;;7386793;19;20153;-68
2023/07/16 08:02:58;;;;;;;0.00;0.00;;;26.60;99.90;;;;;;7386705;19;20156;-71
2023/07/16 08:05:26;;;;;;;0.00;0.00;;;26.50;99.90;;;;;;7387018;19;20137;-71
2023/07/16 08:07:55;;;;;;;0.00;0.00;;;26.30;99.90;;;;;;7385748;19;20197;-69
2023/07/16 08:10:24;;;;;;;0.00;0.00;;;26.30;99.90;;;;;;7387362;19;20749;-69
2023/07/16 08:12:53;;;;;;;0.00;0.00;;;26.50;99.90;;;;;;7387162;19;20160;-71
2023/07/16 08:15:24;;;;;;;0.00;0.00;;;26.70;99.90;;;;;;7384967;19;20133;-68
2023/07/16 08:17:54;;;;;;;0.00;0.00;;;26.70;99.90;;;;;;7385050;19;20181;-69
2023/07/16 08:20:22;;;;;;;0.00;0.00;;;26.80;99.90;;;;;;7382563;19;20181;-68
2023/07/16 08:22:51;;;;;;;0.00;0.00;;;26.90;99.90;;;;;;7386522;19;20133;-67
2023/07/16 08:25:20;;;;;;;0.00;0.00;;;27.20;99.90;;;;;;7384443;19;20152;-69
2023/07/16 08:27:49;;;;;;;0.00;0.00;;;27.40;99.90;;;;;;7385837;19;20152;-70
2023/07/16 08:30:18;;;;;;;0.00;0.00;;;27.60;99.90;;;;;;7383369;19;20156;-67
2023/07/16 08:32:49;;;;;;;0.00;0.00;;;27.80;99.90;;;;;;7386075;19;20148;-67
2023/07/16 08:35:19;;;;;;;0.00;0.00;;;27.70;99.90;;;;;;7382880;19;20157;-69
2023/07/16 08:37:48;;;;;;;0.00;0.00;;;;;;;;;;7386396;19;20152;-69
2023/07/16 08:40:18;;;;;;;0.00;0.00;;;28.00;99.90;;;;;;7381973;19;20149;-68
2023/07/16 08:42:48;;;;;;;0.00;0.00;;;28.00;99.90;;;;;;7387187;19;20133;-68
2023/07/16 08:45:18;;;;;;;0.00;0.00;;;;;;;;;;7383583;19;20513;-68
2023/07/16 08:47:49;;;;;;;0.00;0.00;;;;;;;;;;7384678;19;20187;-69
2023/07/16 08:50:19;;;;;;;0.00;0.00;;;;;;;;;;7382555;19;20181;-69
2023/07/16 08:52:48;;;;;;;0.00;0.00;;;;;;;;;;7384190;19;20141;-67
2023/07/16 08:55:17;;;;;;;0.00;0.00;;;;;;;;;;7383669;19;20156;-69
2023/07/16 08:57:46;;;;;;;0.00;0.00;;;28.40;99.90;;;;;;7380676;19;20176;-71
2023/07/16 09:00:17;;;;;;;0.00;0.00;;;;;;;;;;7382736;19;20152;-69
2023/07/16 09:02:49;;;;;;;0.00;0.00;;;;;;;;;;7385797;19;20153;-70
2023/07/16 09:05:18;;;;;;;0.00;0.00;;;;;;;;;;7384825;19;20145;-69
2023/07/16 09:07:47;;;;;;;0.00;0.00;;;;;;;;;;7382877;19;20180;-70
2023/07/16 09:10:16;;;;;;;0.00;0.00;;;;;;;;;;7387173;19;20192;-71
2023/07/16 09:12:45;;;;;;;0.00;0.00;;;;;;;;;;7392084;19;20149;-71
2023/07/16 09:15:14;;;;;;;0.00;0.00;;;;;;;;;;7389020;19;20144;-71
2023/07/16 09:17:43;;;;;;;0.00;0.00;;;;;;;;;;7391780;19;20676;-70
2023/07/16 09:20:15;;;;;;;0.00;0.00;;;;;;;;;;7390313;19;20133;-70
2023/07/16 09:22:43;;;;;;;0.00;0.00;;;;;;;;;;7391003;19;20174;-70
2023/07/16 09:25:12;;;;;;;0.00;0.00;;;;;;;;;;7391762;19;20133;-71
2023/07/16 09:27:41;;;;;;;0.00;0.00;;;;;;;;;;7389511;19;20161;-72
2023/07/16 09:30:17;;;;;;;0.00;0.00;;;;;;;;;;7390336;19;20165;-71
2023/07/16 09:32:47;;;;;;;0.00;0.00;;;;;;;;;;7388785;19;20188;-71
2023/07/16 09:35:19;;;;;;;0.00;0.00;;;;;;;;;;7392092;19;20136;-72
2023/07/16 09:37:48;;;;;;;0.00;0.00;;;;;;;;;;7390118;19;20152;-71
2023/07/16 09:40:16;;;;;;;0.00;0.00;;;;;;;;;;7389599;19;20612;-71
2023/07/16 09:42:46;;;;;;;0.00;0.00;;;;;;;;;;7390121;19;20149;-72
2023/07/16 09:45:20;;;;;;;0.00;0.00;;;;;;;;;;7391162;19;20162;-72
2023/07/16 09:47:49;;;;;;;0.00;0.00;;;;;;;;;;7388699;19;20172;-73
2023/07/16 09:50:20;;;;;;;0.00;0.00;;;;;;;;;;7389338;19;20165;-74
2023/07/16 09:52:50;;;;;;;0.00;0.00;;;;;;;;;;7389142;19;20209;-75
2023/07/16 09:55:19;;;;;;;0.00;0.00;;;;;;;;;;7390857;19;20133;-74
2023/07/16 09:57:49;;;;;;;0.00;0.00;;;;;;;;;;7391196;19;20137;-72
2023/07/16 10:00:20;;;;;;;0.00;0.00;;;;;;;;;;7388456;19;20228;-73
2023/07/16 10:02:49;;;;;;;0.00;0.00;;;;;;;;;;7387542;19;20176;-71
2023/07/16 10:05:21;;;;;;;0.00;0.00;;;;;;;;;;7388499;19;20152;-71
2023/07/16 10:07:53;;;;;;;0.00;0.00;;;;;;;;;;7388888;19;20160;-70
2023/07/16 10:10:22;;;;;;;0.00;0.00;;;;;;;;;;7386935;19;20244;-72
2023/07/16 10:12:58;;;;;;;0.00;0.00;;;;;;;;;;7386927;19;20168;-71
2023/07/16 10:15:31;;;;;;;0.00;0.00;;;29.40;99.90;;;;;;7386466;19;20506;-71
2023/07/16 10:18:00;;;;;;;0.00;0.00;;;29.50;99.90;;;;;;7388287;19;20160;-71
2023/07/16 10:20:42;;;;;;;0.00;0.00;;;29.40;99.90;;;;;;7386210;19;20164;-72
2023/07/16 10:23:15;;;;;;;0.00;0.00;;;29.50;99.90;;;;;;7385607;19;20169;-73
2023/07/16 10:26:01;;;;;;;0.00;0.00;;;29.50;99.90;;;;;;7388679;19;20162;-72
2023/07/16 10:28:29;;;;;;;0.00;0.00;;;29.50;99.90;;;;;;7388039;19;20152;-72
2023/07/16 10:30:58;;;;;;;0.00;0.00;;;29.50;99.90;;;;;;7387994;19;20144;-73
2023/07/16 10:33:27;;;;;;;0.00;0.00;;;29.40;99.90;;;;;;7386747;19;20181;-71
2023/07/16 10:36:00;;;;;;;0.00;0.00;;;29.30;99.90;;;;;;7387217;19;20156;-73
2023/07/16 10:38:29;;;;;;;0.00;0.00;;;29.10;99.90;;;;;;7386249;19;20161;-73
2023/07/16 10:40:58;;;;;;;0.00;0.00;;;29.00;99.90;;;;;;7385736;19;20152;-74
2023/07/16 10:43:28;;;;;;;0.00;0.00;;;28.90;99.90;;;;;;7385125;19;20180;-73
2023/07/16 10:45:56;;;;;;;0.00;0.00;;;28.90;99.90;;;;;;7395122;19;20198;-73
2023/07/16 10:48:27;;;;;;;0.00;0.00;;;29.00;99.90;;;;;;7396037;19;20153;-75
2023/07/16 10:50:58;;;;;;;0.00;0.00;;;29.10;99.90;;;;;;7393917;19;20141;-73
2023/07/16 10:53:27;;;;;;;0.00;0.00;;;29.20;99.90;;;;;;7393476;19;20156;-74
2023/07/16 10:55:59;;;;;;;0.00;0.00;;;29.30;99.90;;;;;;7396178;19;20152;-76
2023/07/16 10:58:28;;;;;;;0.00;0.00;;;29.30;99.90;;;;;;7394141;19;20168;-74
2023/07/16 11:00:58;;;;;;;0.00;0.00;;;29.40;99.90;;;;;;7393446;19;20153;-74
2023/07/16 11:03:26;;;;;;;0.00;0.00;;;29.40;99.90;;;;;;7393771;19;20188;-74
2023/07/16 11:05:55;;;;;;;0.00;0.00;;;29.20;99.90;;;;;;7395826;19;20164;-75
2023/07/16 11:08:27;;;;;;;0.00;0.00;;;29.10;99.90;;;;;;7395002;19;20177;-73
2023/07/16 11:10:57;;;;;;;0.00;0.00;;;29.10;99.90;;;;;;7394817;19;20177;-73
2023/07/16 11:13:30;;;;;;;0.00;0.00;;;29.20;99.90;;;;;;7392157;19;20201;-73
2023/07/16 11:15:59;;;;;;;0.00;0.00;;;29.20;99.90;;;;;;7395474;19;20152;-73
2023/07/16 11:18:27;;;;;;;0.00;0.00;;;29.30;99.90;;;;;;7394917;19;20164;-72
2023/07/16 11:20:56;;;;;;;0.00;0.00;;;29.30;99.90;;;;;;7392569;19;20149;-73
2023/07/16 11:23:29;;;;;;;0.00;0.00;;;29.40;99.90;;;;;;7392716;19;20184;-73
2023/07/16 11:25:58;;;;;;;0.00;0.00;;;29.40;99.90;;;;;;7394528;19;20161;-73
2023/07/16 11:28:26;;;;;;;0.00;0.00;;;29.40;99.90;;;;;;7394219;19;20144;-73
2023/07/16 11:30:55;;;;;;;0.00;0.00;;;29.40;99.90;;;;;;7394492;19;20165;-73
2023/07/16 11:33:23;;;;;;;0.00;0.00;;;29.40;99.90;;;;;;7393439;19;20213;-73
2023/07/16 11:35:54;;;;;;;0.00;0.00;;;29.40;99.90;;;;;;7395026;19;20153;-73
2023/07/16 11:38:23;;;;;;;0.00;0.00;;;29.40;99.90;;;;;;7396095;19;20125;-73
2023/07/16 11:40:54;;;;;;;0.00;0.00;;;29.50;99.90;;;;;;7393438;19;20167;-73
2023/07/16 11:43:23;;;;;;;0.00;0.00;;;29.60;99.90;;;;;;7393283;19;20160;-73
2023/07/16 11:45:51;;;;;;;0.00;0.00;;;29.60;99.90;;;;;;7393268;19;20149;-73
2023/07/16 11:48:20;;;;;;;0.00;0.00;;;29.70;99.90;;;;;;7391899;19;20156;-72
2023/07/16 11:50:48;;;;;;;0.00;0.00;;;29.60;99.90;;;;;;7391116;19;20156;-73
2023/07/16 11:53:19;;;;;;;0.00;0.00;;;29.60;99.90;;;;;;7391718;19;20209;-73
2023/07/16 11:55:48;;;;;;;0.00;0.00;;;29.60;99.90;;;;;;7394189;19;20129;-73
2023/07/16 11:58:19;;;;;;;0.00;0.00;;;29.60;99.90;;;;;;7394108;19;20137;-72
2023/07/16 12:00:48;;;;;;;0.00;0.00;;;29.70;99.90;;;;;;7389914;19;20803;-73
2023/07/16 12:03:16;;;;;;;0.00;0.00;;;29.70;99.90;;;;;;7392328;19;20520;-72
2023/07/16 12:05:45;;;;;;;0.00;0.00;;;29.70;99.90;;;;;;7393566;19;20129;-72
2023/07/16 12:08:14;;;;;;;0.00;0.00;;;29.70;99.90;;;;;;7391682;19;20177;-74
2023/07/16 12:10:43;;;;;;;0.00;0.00;;;29.70;99.90;;;;;;7392765;19;20133;-76
2023/07/16 12:13:11;;;;;;;0.00;0.00;;;29.70;99.90;;;;;;7392389;19;20157;-74
2023/07/16 12:15:43;;;;;;;0.00;0.00;;;29.70;99.90;;;;;;7392178;19;20141;-72
2023/07/16 12:18:11;;;;;;;0.00;0.00;;;29.70;99.90;;;;;;7388717;19;20169;-73
2023/07/16 12:20:40;;;;;;;0.00;0.00;;;29.80;99.90;;;;;;7390686;19;20128;-73
2023/07/16 12:23:09;;;;;;;0.00;0.00;;;;;;;;;;7390250;19;20184;-72
2023/07/16 12:25:38;;;;;;;0.00;0.00;;;;;;;;;;7391931;19;20149;-71
2023/07/16 12:28:07;;;;;;;0.00;0.00;;;;;;;;;;7391264;19;20177;-73
2023/07/16 12:30:36;;;;;;;0.00;0.00;;;;;;;;;;7391715;19;20248;-73
2023/07/16 12:33:07;;;;;;;0.00;0.00;;;;;;;;;;7391280;19;20213;-73
2023/07/16 12:35:36;;;;;;;0.00;0.00;;;;;;;;;;7391710;19;20165;-70
2023/07/16 12:38:05;;;;;;;0.00;0.00;;;;;;;;;;7392336;19;20476;-73
2023/07/16 12:40:39;;;;;;;0.00;0.00;;;;;;;;;;7390736;19;20149;-72
2023/07/16 12:43:08;;;;;;;0.00;0.00;;;;;;;;;;7392364;19;20159;-73
2023/07/16 12:45:37;;;;;;;0.00;0.00;;;;;;;;;;7390693;19;20156;-72
2023/07/16 12:48:09;;;;;;;0.00;0.00;;;;;;;;;;7390024;19;20148;-72
2023/07/16 12:50:37;;;;;;;0.00;0.00;;;;;;;;;;7388470;19;20624;-72
2023/07/16 12:53:06;;;;;;;0.00;0.00;;;;;;;;;;7389365;19;20152;-72
2023/07/16 12:55:35;;;;;;;0.00;0.00;;;;;;;;;;7389351;19;20144;-72
2023/07/16 12:58:04;;;;;;;0.00;0.00;;;;;;;;;;7391963;19;20117;-73
2023/07/16 13:00:33;;;;;;;0.00;0.00;;;;;;;;;;7390978;19;20156;-72
2023/07/16 13:03:02;;;;;;;0.00;0.00;;;;;;;;;;7390210;19;20172;-72
2023/07/16 13:05:31;;;;;;;0.00;0.00;;;;;;;;;;7391007;19;20172;-72
2023/07/16 13:08:00;;;;;;;0.00;0.00;;;;;;;;;;7389798;19;20133;-72
2023/07/16 13:10:29;;;;;;;0.00;0.00;;;;;;;;;;7389704;19;20157;-73
2023/07/16 13:12:58;;;;;;;0.00;0.00;;;;;;;;;;7389740;19;20181;-72
2023/07/16 13:15:27;;;;;;;0.00;0.00;;;;;;;;;;7391913;19;20140;-72
2023/07/16 13:17:56;;;;;;;0.00;0.00;;;;;;;;;;7390557;19;20162;-72
2023/07/16 13:20:25;;;;;;;0.00;0.00;;;;;;;;;;7391327;19;20196;-71
2023/07/16 13:22:56;;;;;;;0.00;0.00;;;;;;;;;;7388591;19;20184;-72